Terminal Aerodrome Forecast
Issued by NWS

Home | Current Version | Previous Version | Text Only | Print | Product List | Glossary On
Versions: 1 2 3 4 5 6 7 8 9 10 11 12 13 14 15 16 17 18
000
FTUS45 KRIW 191126
TAFPNA
TAF
KPNA 191126Z 1912/2012 VRB05KT 3SM -SN OVC022
     FM192000 28010KT 6SM -SN OVC035
     FM192300 29010KT P6SM SCT040 BKN060
     FM200200 30008KT P6SM SCT070
      AMD LTD TO CLD VIS AND WIND=

USA.gov is the U.S. government's official web portal to all federal, state and local government web resources and services.